Airfield :
LOGIN :

Register | Disclaimer

   EN    FR    IT 

 










Legend :    VFR   Marginal VFR   IFR   Intensive IFR   Very Intensive IFR
Visi :
Ceiling :
>= 8 km
>= 3000ft
5 to 8 km
1000 to 3000 ft
1500m to 5 km
500 to 1000 ft
800 to 1500m
200 to 500 ft
< 800m
< 200 ft
Symbols :   Thunderstorms  Fog  Heavy snow  Heavy precipitations  Wind > 20 kt
SIGMETs :     Misc.  Thunderstorms  Icing  Turbulence  Mountain Waves  Volcanic Ashes






- Airport Elevation : 978 ft
- IATA code : LNZ


LOWL - Linz

CURRENT METAR :
  • 270150Z AUTO VRB02KT 3500 BR FEW002 BKN003 M02/M02 Q1023

EXPIRED METARs :
  • 270120Z AUTO VRB02KT 3700 BR SCT002 BKN003 M02/M02 Q1024
  • 270050Z AUTO VRB02KT 3500 BR BKN002 M02/M02 Q1024
  • 270020Z AUTO VRB02KT 3700 BR BKN002 M02/M02 Q1024
  • 262350Z AUTO VRB01KT 4100 BR FEW002 BKN003 M02/M02 Q1024

TAF TAF LOWL
Valid from the 27 at 00:00 until the 28 at 00:00 UTC


262315Z 2700/2724 VRB02KT 7000 BKN007 TX01/2713Z TNM02/2702Z
TEMPO 2700/2709 4000 OVC004
TEMPO 2716/2724 4000 OVC004



MET'MAP, your aeronautical weather chart ! - Copyright ORBIFLY December 2007 - Disclaimer

ORBIFLY MET'MAP TEAM :

Programming & Development : Alexandra Zaïnal
Concept & original design : Baudouin d'Aumeries
Assistance for programming : Marc-Olivier Méhu
Technical & hardware support : Manuel Goepfert

Contact : metmap@orbifly.com




SOURCES & CREDITS :

   NOAA